Time;durP1;ratioP1;P1;durP2;ratioP2;P2;SDS_P1;SDS_P2;PMS_P1;PMS_P2;Temp;Humidity;BMP_temperature;BMP_pressure;BME280_temperature;BME280_humidity;BME280_pressure;Samples;Min_cycle;Max_cycle;Signal;HPM_P1;HPM_P2
2023/10/13 00:00:33;;;;;;;5.50;3.40;;;20.10;73.70;;;;;;4974798;28;20220;-70
2023/10/13 00:03:02;;;;;;;4.10;3.03;;;20.10;73.70;;;;;;4993691;28;20189;-69
2023/10/13 00:05:32;;;;;;;4.95;3.38;;;20.10;73.70;;;;;;4991222;28;20268;-69
2023/10/13 00:08:03;;;;;;;4.20;3.67;;;20.10;73.70;;;;;;4993333;28;20224;-69
2023/10/13 00:10:30;;;;;;;4.00;3.60;;;20.10;73.60;;;;;;4993222;28;20244;-69
2023/10/13 00:15:57;;;;;;;4.32;3.28;;;20.10;73.60;;;;;;4961551;28;20192;-69
2023/10/13 00:18:33;;;;;;;4.72;3.30;;;20.10;73.60;;;;;;4995544;28;20247;-69
2023/10/13 00:21:12;;;;;;;3.78;3.13;;;20.10;73.60;;;;;;4974719;28;20227;-69
2023/10/13 00:23:54;;;;;;;3.38;3.05;;;20.10;73.60;;;;;;5000262;28;20200;-69
2023/10/13 00:26:28;;;;;;;4.47;3.28;;;20.10;73.70;;;;;;5001076;28;20189;-69
2023/10/13 00:31:40;;;;;;;3.60;2.95;;;20.10;73.70;;;;;;4991671;28;20228;-69
2023/10/13 00:34:16;;;;;;;4.22;3.30;;;20.10;73.70;;;;;;4976470;28;20185;-69
2023/10/13 00:36:48;;;;;;;4.63;3.33;;;20.10;73.60;;;;;;4995188;28;20193;-69
2023/10/13 00:39:15;;;;;;;3.25;2.92;;;20.10;73.60;;;;;;4995441;28;20312;-70
2023/10/13 00:41:52;;;;;;;3.03;2.60;;;20.10;73.70;;;;;;4994955;28;20201;-69
2023/10/13 00:44:37;;;;;;;3.35;3.00;;;20.10;73.70;;;;;;4996294;28;20177;-69
2023/10/13 00:47:07;;;;;;;3.67;3.20;;;20.10;73.70;;;;;;4986741;28;20188;-69
2023/10/13 00:49:39;;;;;;;4.78;3.00;;;20.10;73.60;;;;;;4974851;28;20263;-70
2023/10/13 00:52:09;;;;;;;4.68;3.00;;;20.10;74.50;;;;;;4978466;28;20204;-70
2023/10/13 00:54:38;;;;;;;4.20;3.25;;;20.10;73.70;;;;;;4977922;28;20193;-70
2023/10/13 00:57:11;;;;;;;3.50;3.10;;;20.10;73.70;;;;;;4990883;28;20182;-71
2023/10/13 00:59:37;;;;;;;3.75;3.15;;;20.10;73.60;;;;;;4991468;28;20220;-70
2023/10/13 01:04:49;;;;;;;4.55;3.08;;;20.10;73.60;;;;;;5013757;28;20242;-70
2023/10/13 01:07:16;;;;;;;3.70;3.05;;;20.10;73.60;;;;;;5013612;28;20604;-70
2023/10/13 01:09:42;;;;;;;3.53;2.60;;;20.10;73.50;;;;;;4988205;28;20707;-70
2023/10/13 01:12:08;;;;;;;3.20;2.90;;;20.10;73.60;;;;;;5006833;28;20184;-70
2023/10/13 01:14:35;;;;;;;3.58;2.88;;;20.10;73.60;;;;;;4973144;28;20257;-70
2023/10/13 01:17:02;;;;;;;3.53;3.15;;;20.10;73.60;;;;;;4986724;28;20189;-70
2023/10/13 01:19:28;;;;;;;3.22;2.92;;;20.10;73.60;;;;;;4980533;28;20573;-70
2023/10/13 01:22:06;;;;;;;4.22;3.00;;;20.10;73.60;;;;;;5011801;28;20188;-70
2023/10/13 01:24:35;;;;;;;3.42;3.00;;;20.10;73.60;;;;;;4992951;28;20279;-70
2023/10/13 01:27:20;;;;;;;3.03;2.83;;;20.10;73.60;;;;;;5005229;28;20187;-70
2023/10/13 01:30:09;;;;;;;2.95;2.63;;;20.10;73.60;;;;;;4980821;28;20227;-71
2023/10/13 01:32:40;;;;;;;3.17;2.72;;;20.10;73.60;;;;;;4985715;28;20200;-70
2023/10/13 01:35:09;;;;;;;3.88;3.10;;;20.10;73.60;;;;;;5005536;28;20259;-70
2023/10/13 01:37:35;;;;;;;4.43;2.75;;;20.10;73.60;;;;;;4979817;28;20263;-70
2023/10/13 01:40:01;;;;;;;3.53;3.08;;;20.00;73.50;;;;;;4979271;28;20279;-70
2023/10/13 01:42:28;;;;;;;3.13;2.70;;;20.10;73.60;;;;;;5000641;28;20181;-70
2023/10/13 01:45:05;;;;;;;3.30;2.92;;;20.10;73.50;;;;;;4993911;28;20191;-70
2023/10/13 01:47:35;;;;;;;3.28;2.95;;;20.10;73.60;;;;;;5010571;28;20191;-71
2023/10/13 01:50:13;;;;;;;3.83;3.20;;;20.10;73.50;;;;;;4987568;28;20243;-70
2023/10/13 01:52:41;;;;;;;2.97;2.67;;;20.10;73.60;;;;;;4980282;28;20239;-70
2023/10/13 01:55:10;;;;;;;3.47;2.90;;;20.10;74.30;;;;;;4995181;28;20187;-70
2023/10/13 01:57:36;;;;;;;3.28;2.72;;;20.00;73.50;;;;;;5004452;28;20197;-70
2023/10/13 02:00:10;;;;;;;3.05;2.80;;;20.10;73.60;;;;;;4971366;28;20220;-70
2023/10/13 02:02:44;;;;;;;3.97;2.70;;;20.10;73.60;;;;;;4992569;28;20219;-70
2023/10/13 02:05:16;;;;;;;3.95;2.75;;;20.00;73.50;;;;;;5001551;28;20681;-70
2023/10/13 02:07:45;;;;;;;3.35;2.78;;;20.10;73.60;;;;;;5008761;28;20282;-70
2023/10/13 02:10:13;;;;;;;2.95;2.70;;;20.00;73.50;;;;;;4987979;28;20249;-70
2023/10/13 02:12:45;;;;;;;3.72;2.90;;;20.10;73.60;;;;;;4985133;28;20200;-70
2023/10/13 02:15:22;;;;;;;2.95;2.58;;;20.00;73.40;;;;;;5000295;28;20189;-70
2023/10/13 02:19:03;;;;;;;3.70;2.55;;;20.10;73.60;;;;;;5000920;28;20181;-70
2023/10/13 02:25:43;;;;;;;2.90;2.63;;;20.00;73.50;;;;;;4990198;28;20251;-70
2023/10/13 02:28:13;;;;;;;3.33;2.63;;;20.00;73.50;;;;;;4976863;28;20219;-70
2023/10/13 02:30:50;;;;;;;4.20;2.60;;;20.00;73.50;;;;;;4976921;28;20312;-70
2023/10/13 02:33:21;;;;;;;3.80;3.10;;;20.00;73.50;;;;;;4979296;28;20197;-70
2023/10/13 02:35:53;;;;;;;2.95;2.58;;;20.00;74.20;;;;;;4991338;28;20192;-70
2023/10/13 02:38:27;;;;;;;3.85;2.78;;;20.00;73.50;;;;;;4965714;28;20201;-70
2023/10/13 02:40:56;;;;;;;2.88;2.58;;;20.00;73.50;;;;;;4989914;28;20224;-70
2023/10/13 02:43:22;;;;;;;2.88;2.60;;;20.00;73.40;;;;;;4963295;28;20181;-70
2023/10/13 02:45:58;;;;;;;2.60;2.40;;;20.00;73.50;;;;;;4993842;28;20259;-69
2023/10/13 02:48:39;;;;;;;3.00;2.60;;;20.00;73.50;;;;;;4993593;28;20188;-70
2023/10/13 02:51:15;;;;;;;3.05;2.75;;;20.00;73.50;;;;;;4976211;28;20227;-70
2023/10/13 02:53:48;;;;;;;3.00;2.60;;;20.00;73.50;;;;;;4991627;28;20188;-70
2023/10/13 02:56:20;;;;;;;3.00;2.50;;;20.00;73.50;;;;;;4968856;28;20185;-70
2023/10/13 02:58:56;;;;;;;3.58;2.80;;;20.00;73.80;;;;;;4991388;28;20224;-70
2023/10/13 03:01:28;;;;;;;3.30;3.00;;;20.00;73.40;;;;;;4998995;28;20185;-70
2023/10/13 03:03:55;;;;;;;3.28;2.90;;;20.00;73.40;;;;;;4978584;28;20193;-70
2023/10/13 03:06:32;;;;;;;5.03;3.15;;;20.00;73.50;;;;;;4969750;28;20198;-70
2023/10/13 03:09:21;;;;;;;3.33;2.58;;;20.00;73.40;;;;;;4975869;28;20214;-70
2023/10/13 03:11:51;;;;;;;2.95;2.50;;;20.00;73.40;;;;;;4959644;28;20243;-70
2023/10/13 03:14:31;;;;;;;3.40;2.72;;;20.00;73.40;;;;;;4993347;28;20212;-70
2023/10/13 03:17:05;;;;;;;3.08;2.40;;;20.00;73.40;;;;;;4992358;28;20196;-70
2023/10/13 03:19:34;;;;;;;3.58;2.53;;;20.00;73.40;;;;;;4975638;28;20232;-70
2023/10/13 03:22:11;;;;;;;2.83;2.63;;;20.00;73.50;;;;;;4967997;28;20192;-70
2023/10/13 03:24:46;;;;;;;3.45;2.70;;;20.00;73.50;;;;;;4992009;28;20329;-70
2023/10/13 03:27:22;;;;;;;2.88;2.53;;;20.00;73.40;;;;;;4992045;28;20196;-70
2023/10/13 03:29:54;;;;;;;2.50;2.30;;;20.00;73.40;;;;;;4959626;28;20295;-71
2023/10/13 03:32:20;;;;;;;2.22;2.03;;;20.00;73.40;;;;;;4991919;28;20217;-70
2023/10/13 03:34:54;;;;;;;2.88;2.67;;;20.00;73.40;;;;;;4963139;28;20588;-70
2023/10/13 03:37:38;;;;;;;3.88;2.83;;;20.00;73.40;;;;;;4985565;28;20193;-70
2023/10/13 03:40:56;;;;;;;3.10;2.80;;;20.00;73.40;;;;;;4972770;28;20213;-70
2023/10/13 03:43:09;;;;;;;2.85;2.55;;;20.00;73.40;;;;;;4996266;28;20205;-70
2023/10/13 03:45:41;;;;;;;4.03;2.88;;;20.00;73.40;;;;;;5008209;28;20180;-70
2023/10/13 03:48:11;;;;;;;3.50;3.15;;;19.90;73.30;;;;;;5005813;28;20263;-70
2023/10/13 03:50:48;;;;;;;2.97;2.60;;;19.90;73.30;;;;;;4987180;28;20232;-70
2023/10/13 03:53:14;;;;;;;2.95;2.65;;;20.00;73.40;;;;;;4980926;28;20275;-70
2023/10/13 03:55:47;;;;;;;2.95;2.70;;;20.00;73.40;;;;;;4983923;28;20185;-70
2023/10/13 03:58:16;;;;;;;3.72;2.97;;;20.00;73.40;;;;;;5007042;28;20184;-70
2023/10/13 04:00:42;;;;;;;4.15;2.78;;;20.00;73.30;;;;;;4967967;28;20248;-70
2023/10/13 04:03:09;;;;;;;3.10;2.80;;;19.90;73.30;;;;;;4971740;28;20196;-70
2023/10/13 04:11:52;;;;;;;3.55;2.72;;;19.90;73.30;;;;;;4985027;28;20223;-70
2023/10/13 04:16:53;;;;;;;3.33;2.80;;;19.90;73.30;;;;;;5004865;28;20537;-70
2023/10/13 04:19:29;;;;;;;2.33;2.13;;;20.00;73.30;;;;;;4986092;28;20220;-70
2023/10/13 04:21:58;;;;;;;2.80;2.58;;;19.90;73.20;;;;;;4993870;28;20202;-71
2023/10/13 04:27:29;;;;;;;4.60;2.50;;;19.90;73.20;;;;;;5004312;28;20280;-70
2023/10/13 04:30:10;;;;;;;4.53;2.58;;;19.90;73.20;;;;;;4986471;28;20217;-70
2023/10/13 04:32:46;;;;;;;3.53;2.88;;;19.90;74.00;;;;;;4991407;28;20565;-71
2023/10/13 04:38:01;;;;;;;3.42;2.65;;;19.90;73.20;;;;;;4998524;28;20188;-69
2023/10/13 04:40:35;;;;;;;4.13;2.80;;;19.90;73.20;;;;;;4975578;28;20224;-69
2023/10/13 04:43:16;;;;;;;2.92;2.63;;;19.90;73.20;;;;;;4978565;28;20272;-70
2023/10/13 04:45:53;;;;;;;3.00;2.78;;;19.90;73.20;;;;;;4988116;28;20189;-71
2023/10/13 04:50:50;;;;;;;2.97;2.67;;;19.90;73.30;;;;;;5005856;28;20216;-70
2023/10/13 04:53:33;;;;;;;2.97;2.78;;;19.90;73.30;;;;;;4983276;28;20203;-70
2023/10/13 06:28:43;;;;;;;2.95;2.67;;;19.90;73.40;;;;;;4984417;28;20245;-69
2023/10/13 06:31:21;;;;;;;3.20;2.88;;;19.90;73.40;;;;;;4985284;28;20212;-68
2023/10/13 06:33:47;;;;;;;3.65;2.80;;;19.90;73.30;;;;;;4991846;28;20188;-69
2023/10/13 06:36:13;;;;;;;3.55;3.03;;;19.90;73.40;;;;;;4988823;28;20180;-69
2023/10/13 06:38:39;;;;;;;3.72;3.40;;;19.80;73.20;;;;;;4968506;28;20191;-69
2023/10/13 06:41:07;;;;;;;3.25;2.95;;;19.90;73.30;;;;;;4971293;28;20221;-69
2023/10/13 06:43:43;;;;;;;3.17;2.88;;;19.90;73.30;;;;;;4980179;28;20527;-70
2023/10/13 06:46:16;;;;;;;5.32;3.38;;;19.90;73.30;;;;;;4973838;28;20212;-69
2023/10/13 06:48:43;;;;;;;3.70;2.90;;;19.90;73.30;;;;;;5002164;28;20188;-70
2023/10/13 06:51:18;;;;;;;3.33;3.03;;;19.90;73.30;;;;;;4997261;28;20213;-69
2023/10/13 06:53:48;;;;;;;4.30;2.85;;;19.90;73.30;;;;;;5002992;28;20213;-70
2023/10/13 06:56:27;;;;;;;3.28;2.75;;;19.90;73.30;;;;;;4996247;28;20192;-69
2023/10/13 06:58:59;;;;;;;4.47;2.75;;;19.90;73.40;;;;;;4988223;28;20207;-69
2023/10/13 07:01:27;;;;;;;3.42;2.55;;;19.90;73.40;;;;;;4998245;28;20251;-69
2023/10/13 07:03:53;;;;;;;3.15;2.70;;;19.90;73.30;;;;;;5001449;28;20184;-69
2023/10/13 07:06:23;;;;;;;3.10;2.78;;;19.90;73.20;;;;;;4984431;28;20199;-69
2023/10/13 07:08:52;;;;;;;4.00;2.80;;;20.00;73.30;;;;;;4982625;28;20183;-69
2023/10/13 07:11:33;;;;;;;3.00;2.80;;;19.90;73.10;;;;;;5000412;28;20217;-69
2023/10/13 07:14:10;;;;;;;3.33;2.75;;;19.90;73.10;;;;;;4966529;28;20185;-69
2023/10/13 07:17:07;;;;;;;2.83;2.63;;;19.90;73.00;;;;;;5002207;28;20184;-69
2023/10/13 07:19:33;;;;;;;3.92;2.92;;;19.90;73.00;;;;;;4974141;28;20294;-69
2023/10/13 07:22:20;;;;;;;3.92;2.70;;;19.90;73.10;;;;;;4985793;28;20219;-69
2023/10/13 07:24:48;;;;;;;4.68;2.90;;;19.90;73.20;;;;;;4982521;28;20587;-69
2023/10/13 07:27:25;;;;;;;3.00;2.70;;;19.90;73.30;;;;;;4999315;28;20243;-70
2023/10/13 07:30:13;;;;;;;3.05;2.67;;;19.90;73.30;;;;;;4980074;28;20655;-69
2023/10/13 07:32:45;;;;;;;2.90;2.70;;;19.90;73.30;;;;;;4995647;28;20193;-69
2023/10/13 07:35:15;;;;;;;3.38;2.60;;;19.90;73.20;;;;;;5004175;28;20578;-70
2023/10/13 07:37:42;;;;;;;4.32;2.80;;;19.90;73.20;;;;;;4975914;28;20207;-69
2023/10/13 07:40:53;;;;;;;3.72;2.60;;;19.90;73.20;;;;;;4994509;28;20216;-69
2023/10/13 07:43:08;;;;;;;3.38;2.70;;;19.90;73.20;;;;;;4968200;28;20287;-69
2023/10/13 07:45:40;;;;;;;4.13;2.78;;;19.90;73.30;;;;;;5001949;28;20234;-69
2023/10/13 07:48:20;;;;;;;4.07;2.65;;;19.90;73.20;;;;;;4984371;28;20190;-69
2023/10/13 07:51:11;;;;;;;3.63;2.63;;;20.00;73.20;;;;;;4994157;28;20212;-70
2023/10/13 07:53:40;;;;;;;4.35;3.10;;;20.00;73.20;;;;;;4997380;28;20188;-69
2023/10/13 07:56:13;;;;;;;3.55;2.50;;;20.00;73.00;;;;;;4978360;28;20569;-70
2023/10/13 08:01:24;;;;;;;3.40;2.50;;;20.00;73.00;;;;;;4999462;28;20268;-69
2023/10/13 08:04:04;;;;;;;2.88;2.30;;;20.00;73.00;;;;;;4981909;28;20207;-69
2023/10/13 08:06:30;;;;;;;4.03;2.47;;;20.00;72.90;;;;;;4999483;28;20188;-69
2023/10/13 08:09:07;;;;;;;3.78;3.05;;;20.10;73.00;;;;;;5000849;28;20184;-70
2023/10/13 08:11:34;;;;;;;3.97;3.05;;;20.00;73.00;;;;;;5002029;28;20188;-69
2023/10/13 08:14:11;;;;;;;2.70;2.50;;;20.00;72.90;;;;;;4993911;28;20189;-70
2023/10/13 08:16:47;;;;;;;4.80;2.67;;;20.10;73.00;;;;;;4999154;28;20196;-69
2023/10/13 08:19:18;;;;;;;3.63;3.20;;;20.10;73.00;;;;;;4980983;28;20700;-69
2023/10/13 08:21:52;;;;;;;3.97;2.70;;;20.10;73.00;;;;;;4994508;28;20190;-69
2023/10/13 08:38:14;;;;;;;3.67;2.80;;;20.10;73.40;;;;;;4996067;28;20199;-70
2023/10/13 08:40:43;;;;;;;4.25;2.70;;;20.10;73.50;;;;;;4983621;28;20312;-70
2023/10/13 08:43:12;;;;;;;2.45;2.25;;;20.10;73.70;;;;;;4996805;28;20185;-70
2023/10/13 08:48:14;;;;;;;2.22;2.03;;;20.10;73.80;;;;;;4996491;28;20245;-71
2023/10/13 08:56:14;;;;;;;2.63;2.42;;;20.10;73.90;;;;;;4979709;28;20197;-71
2023/10/13 09:01:35;;;;;;;3.80;2.45;;;20.20;74.10;;;;;;5003930;28;20200;-70
2023/10/13 09:04:21;;;;;;;2.55;2.17;;;20.20;74.20;;;;;;4988444;28;20193;-70
2023/10/13 09:09:35;;;;;;;3.22;2.47;;;20.10;74.20;;;;;;4998197;28;20622;-70
2023/10/13 09:12:17;;;;;;;4.82;2.67;;;20.10;74.10;;;;;;4999734;28;20185;-70
2023/10/13 09:14:56;;;;;;;4.38;2.80;;;20.20;74.40;;;;;;5006549;28;20200;-70
2023/10/13 09:17:35;;;;;;;2.97;2.42;;;20.10;74.10;;;;;;4982127;28;20192;-70
2023/10/13 09:25:38;;;;;;;3.00;2.42;;;20.10;74.30;;;;;;4994385;28;20192;-70
2023/10/13 09:28:18;;;;;;;3.45;2.40;;;20.10;74.10;;;;;;4989329;28;20200;-71
2023/10/13 09:30:52;;;;;;;2.88;2.28;;;20.20;74.30;;;;;;5001558;28;20222;-70
2023/10/13 09:33:35;;;;;;;2.85;2.60;;;20.10;74.80;;;;;;4983840;28;20189;-70
2023/10/13 09:36:12;;;;;;;2.92;2.50;;;20.20;74.00;;;;;;4976189;28;20251;-70
2023/10/13 09:38:41;;;;;;;3.67;2.28;;;20.10;73.90;;;;;;5004215;28;20237;-70
2023/10/13 09:41:26;;;;;;;2.75;2.42;;;20.20;74.20;;;;;;4985803;28;20235;-69
2023/10/13 09:43:57;;;;;;;4.60;3.03;;;20.10;74.40;;;;;;4996666;28;20184;-70
2023/10/13 09:46:28;;;;;;;4.47;2.33;;;20.10;74.40;;;;;;4996963;28;20192;-70
2023/10/13 09:49:15;;;;;;;3.50;2.30;;;20.10;74.30;;;;;;4978971;28;20192;-69
2023/10/13 09:51:45;;;;;;;4.03;2.63;;;20.10;74.20;;;;;;4997164;28;20193;-70
2023/10/13 09:54:36;;;;;;;4.05;3.08;;;20.20;74.60;;;;;;4993610;28;20182;-70
2023/10/13 09:57:17;;;;;;;2.85;2.33;;;20.20;74.10;;;;;;4991286;28;20220;-70
2023/10/13 09:59:52;;;;;;;3.35;2.30;;;20.20;74.00;;;;;;4981347;28;20229;-70
2023/10/13 10:02:24;;;;;;;4.10;2.13;;;20.20;74.80;;;;;;4980048;28;20188;-70
2023/10/13 10:09:14;;;;;;;3.70;2.28;;;20.20;74.10;;;;;;4992892;28;20204;-70
2023/10/13 10:12:04;;;;;;;3.78;2.33;;;20.20;74.30;;;;;;4994521;28;20180;-70
2023/10/13 10:15:06;;;;;;;2.95;2.35;;;20.20;74.20;;;;;;4994835;28;20189;-70
2023/10/13 10:17:43;;;;;;;3.22;2.28;;;20.20;74.10;;;;;;4991673;28;20279;-70
2023/10/13 10:20:32;;;;;;;4.15;2.00;;;20.20;74.00;;;;;;4982735;28;20225;-70
2023/10/13 10:22:59;;;;;;;3.85;2.40;;;20.20;74.70;;;;;;4971113;28;20192;-70
2023/10/13 10:25:34;;;;;;;3.55;2.13;;;20.20;74.00;;;;;;4993423;28;20193;-69
2023/10/13 10:28:06;;;;;;;4.00;2.05;;;20.20;73.80;;;;;;4976823;28;20215;-70
2023/10/13 10:30:39;;;;;;;3.10;2.35;;;20.20;73.90;;;;;;4992784;28;20209;-70
2023/10/13 10:33:12;;;;;;;2.40;2.20;;;20.20;73.60;;;;;;4969731;28;20204;-70
2023/10/13 10:35:43;;;;;;;2.65;2.40;;;20.20;73.70;;;;;;4994273;28;20200;-70
2023/10/13 10:38:32;;;;;;;3.03;2.42;;;20.20;73.60;;;;;;4976541;28;20204;-70
2023/10/13 10:41:00;;;;;;;3.20;2.22;;;20.20;73.80;;;;;;4993870;28;20248;-70
2023/10/13 10:43:41;;;;;;;4.03;2.60;;;20.20;73.30;;;;;;4984856;28;20188;-70
2023/10/13 10:46:18;;;;;;;3.55;2.75;;;20.20;73.10;;;;;;4987821;28;20184;-69
2023/10/13 10:48:45;;;;;;;3.92;2.30;;;20.20;73.10;;;;;;4992335;28;20196;-70
2023/10/13 10:51:23;;;;;;;3.85;2.67;;;20.20;73.10;;;;;;4993818;28;20654;-70
2023/10/13 10:53:51;;;;;;;2.78;2.03;;;20.20;73.10;;;;;;4993876;28;20188;-69
2023/10/13 10:56:36;;;;;;;2.92;2.50;;;20.20;73.70;;;;;;4993583;28;20684;-70
2023/10/13 10:59:19;;;;;;;3.38;2.45;;;20.30;73.80;;;;;;4992510;28;20207;-70
2023/10/13 11:01:52;;;;;;;3.13;2.38;;;20.30;74.00;;;;;;4960066;28;20184;-71
2023/10/13 11:04:33;;;;;;;3.22;2.17;;;20.30;74.20;;;;;;4992595;28;20212;-70
2023/10/13 11:06:59;;;;;;;3.25;2.53;;;20.30;73.50;;;;;;4973302;28;20264;-69
2023/10/13 11:12:14;;;;;;;3.20;2.22;;;20.30;73.70;;;;;;4984096;28;20184;-69
2023/10/13 11:14:51;;;;;;;2.70;2.20;;;20.30;73.50;;;;;;4991650;28;20232;-69
2023/10/13 11:17:26;;;;;;;4.78;2.47;;;20.30;73.50;;;;;;4992380;28;20203;-70
2023/10/13 11:19:52;;;;;;;3.55;2.35;;;20.30;73.80;;;;;;4989666;28;20221;-69
2023/10/13 11:22:36;;;;;;;3.45;2.40;;;20.30;73.90;;;;;;4988839;28;20200;-70
2023/10/13 11:25:09;;;;;;;4.68;2.17;;;20.30;73.90;;;;;;4988631;28;20203;-70
2023/10/13 11:30:19;;;;;;;3.15;2.20;;;20.30;73.30;;;;;;4991947;28;20212;-69
2023/10/13 11:32:56;;;;;;;3.38;2.60;;;20.30;73.20;;;;;;4990693;28;20190;-70
2023/10/13 11:35:25;;;;;;;2.70;2.47;;;20.30;73.30;;;;;;4975757;28;20666;-70
2023/10/13 11:38:03;;;;;;;2.47;2.10;;;20.30;73.20;;;;;;4991760;28;20212;-70
2023/10/13 11:41:06;;;;;;;2.83;2.00;;;20.30;73.30;;;;;;4992642;28;20224;-69
2023/10/13 11:46:44;;;;;;;2.47;2.28;;;20.30;73.20;;;;;;4992776;28;20189;-70
2023/10/13 11:51:50;;;;;;;3.42;2.28;;;20.30;73.20;;;;;;5011075;28;20192;-69
2023/10/13 11:54:21;;;;;;;2.83;2.10;;;20.30;73.20;;;;;;5012013;28;20188;-70
2023/10/13 11:56:48;;;;;;;2.58;2.20;;;20.30;73.30;;;;;;5003107;28;20276;-70
2023/10/13 11:59:17;;;;;;;4.15;2.53;;;20.40;73.30;;;;;;5010465;28;20211;-70
2023/10/13 12:07:19;;;;;;;3.85;2.30;;;20.30;73.20;;;;;;5003367;28;20188;-69
2023/10/13 12:12:27;;;;;;;2.90;2.63;;;20.30;73.30;;;;;;5010228;28;20187;-70
2023/10/13 12:14:55;;;;;;;2.92;2.40;;;20.30;73.20;;;;;;4975349;28;20277;-70
2023/10/13 12:17:34;;;;;;;2.83;2.38;;;20.30;73.20;;;;;;5006830;28;20275;-70
2023/10/13 12:20:04;;;;;;;4.10;2.60;;;20.30;73.20;;;;;;5001828;28;20223;-69
2023/10/13 12:22:42;;;;;;;4.53;2.47;;;20.30;73.20;;;;;;4994226;28;20180;-70
2023/10/13 12:25:44;;;;;;;3.67;2.28;;;20.30;73.80;;;;;;4986423;28;20604;-70
2023/10/13 12:28:18;;;;;;;3.10;2.28;;;20.30;73.20;;;;;;5002463;28;20175;-70
2023/10/13 12:30:53;;;;;;;4.03;2.80;;;20.30;73.40;;;;;;5013150;28;20211;-70
2023/10/13 12:33:42;;;;;;;3.25;2.42;;;20.30;73.20;;;;;;4994590;28;20246;-71
2023/10/13 12:52:15;;;;;;;3.00;2.35;;;20.40;73.40;;;;;;4998622;28;20267;-70
2023/10/13 12:54:58;;;;;;;2.78;2.47;;;20.40;73.10;;;;;;5012734;28;20254;-70
2023/10/13 12:57:28;;;;;;;4.93;2.40;;;20.40;73.30;;;;;;5003940;28;20188;-70
2023/10/13 12:59:55;;;;;;;3.55;2.45;;;20.40;73.30;;;;;;4993490;28;20221;-70
2023/10/13 13:02:26;;;;;;;2.92;1.83;;;20.40;73.30;;;;;;4988767;28;20184;-69
2023/10/13 13:05:02;;;;;;;2.72;2.15;;;20.40;73.30;;;;;;5006284;28;20186;-70
2023/10/13 13:07:29;;;;;;;2.53;2.30;;;20.40;73.30;;;;;;4990550;28;20264;-70
2023/10/13 13:09:58;;;;;;;4.05;2.42;;;20.40;73.20;;;;;;5004396;28;20215;-71
2023/10/13 13:12:25;;;;;;;3.47;2.28;;;20.40;73.30;;;;;;5011939;28;20246;-70
2023/10/13 13:14:54;;;;;;;3.65;2.22;;;20.40;73.30;;;;;;4987361;28;20197;-70
2023/10/13 13:17:21;;;;;;;2.65;2.17;;;20.40;73.30;;;;;;4980345;28;20180;-69
2023/10/13 13:19:47;;;;;;;3.70;2.15;;;20.40;73.20;;;;;;4995162;28;20220;-70
2023/10/13 13:22:13;;;;;;;3.03;2.45;;;20.40;73.40;;;;;;4992990;28;20192;-70
2023/10/13 13:24:43;;;;;;;3.50;2.70;;;20.40;73.30;;;;;;5002648;28;20208;-70
2023/10/13 13:27:13;;;;;;;3.58;2.08;;;20.40;73.10;;;;;;5005538;28;20223;-70
2023/10/13 13:29:45;;;;;;;3.17;2.42;;;20.40;73.00;;;;;;4984638;28;20279;-70
2023/10/13 13:32:24;;;;;;;3.72;2.30;;;20.40;73.10;;;;;;5005497;28;20242;-70
2023/10/13 13:35:04;;;;;;;2.55;2.20;;;20.40;73.70;;;;;;5010666;28;20267;-70
2023/10/13 13:37:31;;;;;;;3.28;2.40;;;20.40;73.00;;;;;;5011992;28;20211;-70
2023/10/13 13:40:13;;;;;;;3.08;2.78;;;20.40;73.00;;;;;;4985979;28;20225;-70
2023/10/13 13:42:40;;;;;;;2.65;2.30;;;20.40;73.30;;;;;;5005039;28;20727;-70
2023/10/13 13:45:26;;;;;;;2.90;2.20;;;20.40;73.00;;;;;;5009190;28;20204;-70
2023/10/13 13:47:53;;;;;;;2.55;2.03;;;20.50;73.40;;;;;;4996108;28;20185;-70
2023/10/13 13:50:32;;;;;;;3.30;2.03;;;20.40;72.90;;;;;;4999499;28;20256;-70
2023/10/13 13:52:58;;;;;;;2.72;2.20;;;20.40;73.20;;;;;;5008065;28;20188;-70
2023/10/13 13:55:28;;;;;;;3.10;2.33;;;20.40;73.30;;;;;;5009993;28;20267;-70
2023/10/13 13:57:56;;;;;;;3.65;2.30;;;20.40;73.00;;;;;;4970682;28;20200;-70
2023/10/13 14:00:37;;;;;;;2.80;2.28;;;20.40;73.00;;;;;;4994733;28;20224;-70
2023/10/13 14:03:12;;;;;;;2.75;2.40;;;20.40;73.00;;;;;;4987634;28;20188;-69
2023/10/13 14:05:45;;;;;;;3.20;2.42;;;20.40;73.00;;;;;;5003942;28;20188;-70
2023/10/13 14:08:15;;;;;;;2.67;2.20;;;20.40;73.30;;;;;;5004727;28;20464;-70
2023/10/13 14:16:16;;;;;;;2.70;2.15;;;20.40;73.40;;;;;;5009427;28;20226;-70
2023/10/13 14:18:47;;;;;;;2.47;2.25;;;20.40;73.30;;;;;;5007996;28;20203;-70
2023/10/13 14:21:19;;;;;;;2.60;2.20;;;20.40;73.30;;;;;;5002074;28;20277;-70
2023/10/13 14:23:49;;;;;;;3.42;2.15;;;20.40;73.20;;;;;;4991128;28;20220;-70
2023/10/13 14:26:25;;;;;;;3.40;2.15;;;20.50;73.40;;;;;;5001496;28;20225;-70
2023/10/13 14:29:57;;;;;;;2.53;2.25;;;20.40;73.20;;;;;;4975934;28;20200;-71
2023/10/13 14:31:50;;;;;;;3.60;2.38;;;20.50;73.40;;;;;;4998333;28;20231;-70
2023/10/13 14:34:16;;;;;;;3.65;2.17;;;20.40;73.30;;;;;;5004739;28;20185;-70
2023/10/13 14:36:48;;;;;;;2.85;2.38;;;20.50;74.20;;;;;;5004676;28;20185;-70
2023/10/13 14:39:14;;;;;;;2.45;2.25;;;20.50;73.10;;;;;;5006900;28;20226;-70
2023/10/13 14:41:40;;;;;;;3.38;2.25;;;20.40;73.00;;;;;;5007042;28;20267;-70
2023/10/13 14:44:06;;;;;;;2.53;2.17;;;20.50;73.30;;;;;;5005204;28;20185;-70
2023/10/13 14:46:39;;;;;;;2.42;2.20;;;20.50;73.10;;;;;;4972154;28;20184;-70
2023/10/13 14:49:06;;;;;;;1.90;1.80;;;20.50;73.00;;;;;;5006652;28;20197;-69
2023/10/13 14:51:32;;;;;;;2.92;2.13;;;20.50;73.00;;;;;;4977127;28;20201;-69
2023/10/13 14:54:03;;;;;;;3.33;2.03;;;20.50;73.10;;;;;;4985586;28;20280;-70
2023/10/13 14:56:29;;;;;;;2.85;2.35;;;20.50;73.10;;;;;;4977440;28;20184;-70
2023/10/13 14:58:55;;;;;;;4.18;2.45;;;20.50;73.20;;;;;;5004345;28;20320;-70
2023/10/13 15:01:26;;;;;;;2.10;1.80;;;20.50;73.10;;;;;;4990653;28;20294;-70
2023/10/13 15:03:57;;;;;;;2.70;2.35;;;20.50;73.10;;;;;;4999191;28;20189;-70
2023/10/13 15:06:29;;;;;;;3.97;2.40;;;20.50;73.00;;;;;;4993024;28;20189;-70
2023/10/13 15:08:57;;;;;;;3.08;2.33;;;20.50;72.80;;;;;;4982447;28;20195;-71
2023/10/13 15:11:26;;;;;;;3.15;2.20;;;20.50;73.10;;;;;;5003023;28;20180;-70
2023/10/13 15:13:56;;;;;;;3.38;2.00;;;20.50;73.10;;;;;;5005439;28;20181;-69
2023/10/13 15:16:29;;;;;;;3.45;2.67;;;20.50;73.20;;;;;;4995597;28;20239;-70
2023/10/13 15:18:55;;;;;;;3.88;2.42;;;20.50;73.00;;;;;;5002930;28;20185;-70
2023/10/13 15:21:34;;;;;;;2.97;2.13;;;20.50;73.00;;;;;;4992138;28;20251;-71
2023/10/13 15:24:13;;;;;;;3.72;2.50;;;20.50;72.90;;;;;;4997976;28;20185;-70
2023/10/13 15:26:48;;;;;;;3.35;2.60;;;20.50;72.70;;;;;;5008228;28;20180;-70
2023/10/13 15:29:24;;;;;;;2.70;2.10;;;20.50;72.90;;;;;;5004888;28;20191;-71
2023/10/13 15:34:28;;;;;;;2.83;2.53;;;20.50;73.00;;;;;;5000946;28;20196;-69
2023/10/13 15:36:56;;;;;;;3.33;2.53;;;20.50;72.90;;;;;;4989559;28;20191;-70
2023/10/13 15:39:31;;;;;;;3.08;1.95;;;20.50;73.20;;;;;;4991569;28;20223;-70
2023/10/13 15:42:02;;;;;;;2.88;2.42;;;20.50;73.00;;;;;;5002476;28;20203;-70
2023/10/13 15:44:30;;;;;;;2.47;2.22;;;20.50;73.40;;;;;;4987895;28;20179;-70
2023/10/13 15:46:58;;;;;;;3.25;2.30;;;20.50;73.20;;;;;;4988070;28;20188;-71
2023/10/13 15:49:24;;;;;;;2.28;2.08;;;20.50;73.00;;;;;;4996668;28;20212;-70
2023/10/13 15:51:50;;;;;;;2.53;2.33;;;20.50;72.80;;;;;;5002727;28;20202;-70
2023/10/13 15:54:20;;;;;;;3.17;2.17;;;20.50;72.90;;;;;;4998692;28;20195;-70
2023/10/13 15:56:48;;;;;;;3.15;1.98;;;20.50;72.90;;;;;;4966296;28;20232;-70
2023/10/13 15:59:14;;;;;;;3.33;2.53;;;20.50;72.90;;;;;;5003988;28;20287;-70
2023/10/13 16:01:41;;;;;;;3.63;2.13;;;20.50;72.90;;;;;;5004895;28;20194;-70
2023/10/13 16:04:18;;;;;;;2.47;2.25;;;20.50;72.80;;;;;;4992031;28;20254;-70
2023/10/13 16:06:46;;;;;;;3.13;2.15;;;20.50;72.80;;;;;;4966966;28;20783;-70
2023/10/13 16:09:25;;;;;;;3.28;2.33;;;20.50;72.80;;;;;;5005376;28;20199;-70
2023/10/13 16:11:52;;;;;;;2.67;1.73;;;20.50;72.80;;;;;;5000991;28;20254;-70
2023/10/13 16:14:18;;;;;;;3.13;2.42;;;20.50;72.70;;;;;;4999057;28;20212;-70
2023/10/13 16:16:53;;;;;;;4.93;2.42;;;20.50;72.90;;;;;;5000752;28;20274;-70
2023/10/13 16:19:21;;;;;;;3.63;2.63;;;20.50;72.60;;;;;;5007231;28;20227;-69
2023/10/13 16:21:52;;;;;;;3.70;2.38;;;20.50;72.80;;;;;;4985895;28;20190;-70
2023/10/13 16:24:18;;;;;;;2.50;2.30;;;20.50;72.70;;;;;;5001064;28;20185;-70
2023/10/13 16:26:55;;;;;;;3.63;2.35;;;20.50;72.40;;;;;;4986123;28;20258;-70
2023/10/13 16:29:22;;;;;;;2.90;2.30;;;20.50;72.60;;;;;;5002378;28;20212;-70
2023/10/13 16:31:48;;;;;;;2.42;2.20;;;20.50;72.60;;;;;;5001890;28;20183;-70
2023/10/13 16:34:18;;;;;;;2.90;2.60;;;20.50;72.80;;;;;;5005108;28;20188;-70
2023/10/13 16:36:54;;;;;;;4.13;2.20;;;20.50;72.60;;;;;;5003496;28;20559;-70
2023/10/13 16:39:22;;;;;;;3.85;2.60;;;20.50;72.60;;;;;;4981112;28;20691;-70
2023/10/13 16:41:51;;;;;;;2.53;2.33;;;20.50;72.70;;;;;;5006371;28;20250;-70
2023/10/13 16:44:17;;;;;;;3.65;2.70;;;20.50;72.70;;;;;;5003681;28;20182;-70